Time;durP1;ratioP1;P1;durP2;ratioP2;P2;SDS_P1;SDS_P2;PMS_P1;PMS_P2;Temp;Humidity;BMP_temperature;BMP_pressure;BME280_temperature;BME280_humidity;BME280_pressure;Samples;Min_cycle;Max_cycle;Signal;HPM_P1;HPM_P2
2022/09/01 00:01:09;;;;;;;7.32;3.25;;;14.10;99.90;;;;;;5071252;28;20410;-65
2022/09/01 00:03:36;;;;;;;;;;;14.10;99.90;;;;;;5070847;28;20521;-65
2022/09/01 00:06:02;;;;;;;9.45;3.40;;;14.00;99.90;;;;;;5079541;28;19916;-66
2022/09/01 00:08:28;;;;;;;6.90;3.30;;;13.90;99.90;;;;;;5071467;28;20044;-65
2022/09/01 00:10:55;;;;;;;6.32;3.17;;;14.00;99.90;;;;;;5070205;28;20454;-65
2022/09/01 00:13:21;;;;;;;7.28;3.60;;;13.90;99.90;;;;;;5070650;28;20106;-65
2022/09/01 00:15:46;;;;;;;4.63;3.47;;;13.90;99.90;;;;;;5070971;28;20036;-66
2022/09/01 00:18:14;;;;;;;5.25;3.22;;;14.00;99.90;;;;;;5069991;28;20041;-66
2022/09/01 00:20:40;;;;;;;5.50;3.63;;;13.90;99.90;;;;;;5067129;28;20530;-66
2022/09/01 00:23:05;;;;;;;4.93;3.60;;;13.90;99.90;;;;;;5070629;28;20143;-66
2022/09/01 00:25:31;;;;;;;4.40;3.50;;;13.80;99.90;;;;;;5071126;28;20119;-66
2022/09/01 00:27:59;;;;;;;6.65;3.50;;;13.80;99.90;;;;;;5083481;28;20071;-66
2022/09/01 00:30:25;;;;;;;5.00;3.20;;;13.80;99.90;;;;;;5073504;28;20320;-66
2022/09/01 00:32:50;;;;;;;8.00;4.00;;;13.70;99.90;;;;;;5070379;28;20521;-65
2022/09/01 00:35:17;;;;;;;6.13;3.22;;;13.80;99.90;;;;;;5070432;28;20115;-66
2022/09/01 00:37:43;;;;;;;6.38;3.70;;;13.70;99.90;;;;;;5067208;28;20032;-66
2022/09/01 00:40:11;;;;;;;9.63;3.20;;;13.60;99.90;;;;;;5070428;28;20059;-66
2022/09/01 00:42:38;;;;;;;8.63;3.58;;;13.60;99.90;;;;;;5070759;28;20043;-66
2022/09/01 00:45:06;;;;;;;5.43;3.17;;;13.60;99.90;;;;;;5071919;28;20036;-66
2022/09/01 00:47:31;;;;;;;5.43;3.35;;;13.50;99.90;;;;;;5078920;28;20040;-65
2022/09/01 00:49:58;;;;;;;8.20;3.60;;;13.50;99.90;;;;;;5070174;28;20111;-66
2022/09/01 00:52:34;;;;;;;8.10;3.70;;;13.50;99.90;;;;;;5069077;28;20068;-65
2022/09/01 00:55:10;;;;;;;12.18;3.50;;;13.50;99.90;;;;;;5078723;28;20127;-66
2022/09/01 00:57:36;;;;;;;5.20;3.20;;;13.50;99.90;;;;;;5078344;28;20421;-66
2022/09/01 01:00:10;;;;;;;5.65;3.70;;;13.40;99.90;;;;;;5070361;28;20120;-65
2022/09/01 01:02:37;;;;;;;5.70;3.60;;;13.30;99.90;;;;;;5069045;28;20098;-65
2022/09/01 01:05:05;;;;;;;6.93;3.90;;;13.30;99.90;;;;;;5079062;28;20044;-65
2022/09/01 01:07:35;;;;;;;4.18;3.67;;;13.30;99.90;;;;;;5070580;28;20082;-65
2022/09/01 01:10:01;;;;;;;5.03;3.80;;;13.20;99.90;;;;;;5072435;28;20048;-65
2022/09/01 01:12:29;;;;;;;4.88;3.80;;;13.20;99.90;;;;;;5069563;28;20044;-65
2022/09/01 01:14:55;;;;;;;4.43;3.70;;;13.20;99.90;;;;;;5069700;28;20037;-65
2022/09/01 01:17:22;;;;;;;6.35;3.80;;;13.10;99.90;;;;;;5070650;28;20456;-65
2022/09/01 01:23:02;;;;;;;5.53;3.92;;;13.10;99.90;;;;;;5069733;28;20056;-65
2022/09/01 01:25:53;;;;;;;4.25;3.70;;;13.00;99.90;;;;;;5069901;28;20055;-65
2022/09/01 01:28:21;;;;;;;5.25;3.72;;;13.00;99.90;;;;;;5069058;28;20047;-65
2022/09/01 01:30:53;;;;;;;6.82;4.10;;;13.00;99.90;;;;;;5069844;28;20040;-65
2022/09/01 01:33:24;;;;;;;6.20;3.92;;;13.00;99.90;;;;;;5070164;28;20282;-65
2022/09/01 01:35:52;;;;;;;7.63;3.92;;;12.90;99.90;;;;;;5077447;28;20032;-65
2022/09/01 01:38:21;;;;;;;9.25;3.97;;;12.90;99.90;;;;;;5071667;28;20032;-65
2022/09/01 01:40:48;;;;;;;12.43;4.00;;;12.90;99.90;;;;;;5070220;28;20049;-65
2022/09/01 01:43:18;;;;;;;4.28;3.88;;;12.90;99.90;;;;;;5070214;28;20036;-66
2022/09/01 01:45:47;;;;;;;7.60;4.10;;;12.90;99.90;;;;;;5074198;28;20099;-65
2022/09/01 01:48:14;;;;;;;7.80;4.43;;;12.90;99.90;;;;;;5069587;28;20036;-65
2022/09/01 01:50:41;;;;;;;5.03;3.80;;;12.80;99.90;;;;;;5069573;28;20574;-65
2022/09/01 01:53:12;;;;;;;6.50;4.20;;;12.80;99.90;;;;;;5069424;28;20041;-65
2022/09/01 01:55:40;;;;;;;4.95;3.85;;;12.80;99.90;;;;;;5069618;28;20054;-65
2022/09/01 01:58:06;;;;;;;5.93;4.25;;;12.70;99.90;;;;;;5070218;28;20087;-65
2022/09/01 02:00:33;;;;;;;6.47;4.25;;;12.60;99.90;;;;;;5066769;28;20052;-65
2022/09/01 02:02:59;;;;;;;9.27;4.40;;;12.60;99.90;;;;;;5069410;28;20027;-65
2022/09/01 02:05:31;;;;;;;4.97;3.97;;;12.60;99.90;;;;;;5069940;28;20552;-65
2022/09/01 02:08:02;;;;;;;7.47;4.22;;;12.50;99.90;;;;;;5070060;28;20028;-65
2022/09/01 02:10:31;;;;;;;9.93;4.28;;;12.40;99.90;;;;;;5073133;28;20048;-65
2022/09/01 02:13:04;;;;;;;5.35;4.05;;;12.40;99.90;;;;;;5071241;28;20039;-65
2022/09/01 02:15:38;;;;;;;9.60;4.43;;;12.30;99.90;;;;;;5072720;28;20122;-65
2022/09/01 02:18:04;;;;;;;4.30;3.85;;;12.20;99.90;;;;;;5075941;28;20093;-65
2022/09/01 02:20:31;;;;;;;8.57;4.28;;;12.30;99.90;;;;;;5089217;28;20032;-65
2022/09/01 02:23:09;;;;;;;5.20;4.07;;;12.30;99.90;;;;;;5073321;28;20040;-65
2022/09/01 02:25:37;;;;;;;7.05;4.05;;;12.30;99.90;;;;;;5071132;28;20041;-65
2022/09/01 02:28:04;;;;;;;4.80;4.22;;;12.30;99.90;;;;;;5079728;28;20075;-65
2022/09/01 02:30:33;;;;;;;4.90;4.30;;;12.30;99.90;;;;;;5072642;28;20052;-65
2022/09/01 02:32:59;;;;;;;7.13;4.30;;;12.30;99.90;;;;;;5071567;28;20036;-65
2022/09/01 02:35:35;;;;;;;5.97;4.50;;;12.30;99.90;;;;;;5082225;28;20401;-65
2022/09/01 02:38:01;;;;;;;9.05;4.30;;;12.30;99.90;;;;;;5078783;28;20114;-65
2022/09/01 02:40:30;;;;;;;5.35;4.28;;;12.30;99.90;;;;;;5073019;28;20471;-65
2022/09/01 02:42:58;;;;;;;5.97;4.82;;;12.20;99.90;;;;;;5070163;28;20044;-65
2022/09/01 02:45:25;;;;;;;5.70;4.22;;;12.20;99.90;;;;;;5072847;28;20037;-65
2022/09/01 02:47:52;;;;;;;10.18;5.00;;;12.10;99.90;;;;;;5073040;28;20043;-65
2022/09/01 02:50:19;;;;;;;6.05;4.70;;;12.10;99.90;;;;;;5074824;28;20057;-65
2022/09/01 02:52:47;;;;;;;6.38;4.60;;;12.10;99.90;;;;;;5077792;28;20514;-64
2022/09/01 02:55:20;;;;;;;6.50;4.70;;;12.00;99.90;;;;;;5083560;28;20517;-65
2022/09/01 02:57:55;;;;;;;6.22;4.60;;;11.90;99.90;;;;;;5071887;28;20040;-65
2022/09/01 03:00:27;;;;;;;7.40;4.90;;;11.90;99.90;;;;;;5073000;28;20082;-64
2022/09/01 03:02:55;;;;;;;5.93;4.72;;;11.80;99.90;;;;;;5076959;28;20107;-65
2022/09/01 03:05:27;;;;;;;11.52;4.60;;;11.70;99.90;;;;;;5083259;28;20040;-65
2022/09/01 03:08:02;;;;;;;6.00;4.40;;;11.60;99.90;;;;;;5071798;28;20085;-65
2022/09/01 03:10:31;;;;;;;6.78;4.50;;;11.60;99.90;;;;;;5079684;28;20068;-65
2022/09/01 03:13:05;;;;;;;5.72;4.43;;;11.50;99.90;;;;;;5071068;28;20044;-65
2022/09/01 03:15:32;;;;;;;5.13;4.63;;;11.50;99.90;;;;;;5072446;28;20115;-65
2022/09/01 03:17:59;;;;;;;5.00;4.50;;;11.40;99.90;;;;;;5077770;28;20595;-65
2022/09/01 03:20:27;;;;;;;6.82;4.97;;;11.40;99.90;;;;;;5083942;28;20032;-65
2022/09/01 03:22:55;;;;;;;6.20;4.82;;;11.30;99.90;;;;;;5070636;28;20049;-65
2022/09/01 03:25:22;;;;;;;7.47;5.10;;;11.30;99.90;;;;;;5072902;28;20498;-65
2022/09/01 03:27:48;;;;;;;10.60;5.05;;;11.30;99.90;;;;;;5086100;28;20119;-64
2022/09/01 03:30:14;;;;;;;8.45;4.90;;;11.30;99.90;;;;;;5071771;28;20140;-65
2022/09/01 03:32:39;;;;;;;6.93;4.53;;;11.30;99.90;;;;;;5085886;28;20035;-65
2022/09/01 03:35:05;;;;;;;6.82;4.85;;;11.30;99.90;;;;;;5080549;28;20563;-64
2022/09/01 03:37:32;;;;;;;7.60;5.30;;;11.30;99.90;;;;;;5072097;28;20090;-64
2022/09/01 03:39:58;;;;;;;7.68;5.00;;;11.30;99.90;;;;;;5070824;28;20386;-65
2022/09/01 03:42:28;;;;;;;10.75;4.80;;;11.20;99.90;;;;;;5073638;28;20051;-65
2022/09/01 03:44:55;;;;;;;5.70;5.10;;;11.20;99.90;;;;;;5074925;28;20044;-64
2022/09/01 03:47:21;;;;;;;5.82;5.20;;;11.30;99.90;;;;;;5072082;28;20044;-65
2022/09/01 03:49:48;;;;;;;8.65;5.68;;;11.30;99.90;;;;;;5071872;28;20044;-65
2022/09/01 03:52:16;;;;;;;7.22;5.60;;;11.40;99.90;;;;;;5071927;28;20056;-64
2022/09/01 03:54:42;;;;;;;6.32;5.72;;;11.50;99.90;;;;;;5071196;28;20043;-65
2022/09/01 03:57:09;;;;;;;6.00;5.40;;;11.60;99.90;;;;;;5071504;28;20036;-65
2022/09/01 03:59:36;;;;;;;10.85;5.57;;;11.60;99.90;;;;;;5076992;28;20120;-65
2022/09/01 04:02:03;;;;;;;6.15;4.65;;;11.60;99.90;;;;;;5070982;28;20033;-64
2022/09/01 04:04:31;;;;;;;9.30;5.10;;;11.60;99.90;;;;;;5071680;28;20123;-64
2022/09/01 04:06:59;;;;;;;5.70;4.95;;;11.50;99.90;;;;;;5072539;28;20041;-65
2022/09/01 04:09:25;;;;;;;6.78;5.00;;;11.50;99.90;;;;;;5071014;28;20047;-65
2022/09/01 04:11:52;;;;;;;7.13;5.20;;;11.60;99.90;;;;;;5069313;28;20452;-65
2022/09/01 04:14:19;;;;;;;6.82;5.28;;;11.60;99.90;;;;;;5069422;28;20048;-65
2022/09/01 04:19:35;;;;;;;5.97;5.20;;;11.70;99.90;;;;;;5070673;28;20076;-65
2022/09/01 04:22:02;;;;;;;6.97;5.30;;;11.80;99.90;;;;;;5070949;28;20070;-65
2022/09/01 04:24:30;;;;;;;7.28;5.40;;;11.80;99.90;;;;;;5070244;28;20049;-65
2022/09/01 04:27:00;;;;;;;8.05;5.07;;;11.80;99.90;;;;;;5087798;28;20482;-65
2022/09/01 04:29:27;;;;;;;7.38;5.38;;;11.80;99.90;;;;;;5071888;28;20524;-64
2022/09/01 04:32:02;;;;;;;8.93;5.50;;;11.80;99.90;;;;;;5070777;28;20024;-65
2022/09/01 04:34:35;;;;;;;6.10;5.45;;;11.80;99.90;;;;;;5070120;28;20487;-65
2022/09/01 04:37:05;;;;;;;6.22;4.93;;;11.70;99.90;;;;;;5071341;28;20482;-65
2022/09/01 04:39:31;;;;;;;5.38;4.65;;;11.70;99.90;;;;;;5089913;28;20113;-65
2022/09/01 04:41:57;;;;;;;7.63;5.47;;;11.60;99.90;;;;;;5079014;28;20064;-65
2022/09/01 04:44:24;;;;;;;7.03;5.22;;;11.60;99.90;;;;;;5078304;28;20044;-65
2022/09/01 04:46:50;;;;;;;7.38;5.30;;;11.50;99.90;;;;;;5072377;28;20516;-65
2022/09/01 04:49:21;;;;;;;7.80;5.50;;;11.50;99.90;;;;;;5067514;28;20115;-65
2022/09/01 04:51:49;;;;;;;6.25;5.47;;;11.50;99.90;;;;;;5066478;28;20109;-65
2022/09/01 04:54:15;;;;;;;10.18;5.50;;;11.50;99.90;;;;;;5069083;28;20155;-65
2022/09/01 04:56:43;;;;;;;8.18;5.80;;;11.50;99.90;;;;;;5066074;28;20123;-66
2022/09/01 04:59:10;;;;;;;6.97;5.93;;;11.60;99.90;;;;;;5067756;28;20159;-66
2022/09/01 05:01:44;;;;;;;9.07;5.88;;;11.60;99.90;;;;;;5067587;28;20041;-65
2022/09/01 05:04:16;;;;;;;7.10;5.60;;;11.60;99.90;;;;;;5077661;28;20048;-65
2022/09/01 05:06:48;;;;;;;9.82;5.75;;;11.60;99.90;;;;;;5072443;28;20477;-65
2022/09/01 05:09:16;;;;;;;7.18;5.13;;;11.60;99.90;;;;;;5075926;28;20044;-65
2022/09/01 05:11:44;;;;;;;7.68;5.63;;;11.70;99.90;;;;;;5070434;28;20040;-68
2022/09/01 05:14:11;;;;;;;6.45;5.43;;;11.70;99.90;;;;;;5080280;28;20048;-65
2022/09/01 05:16:39;;;;;;;7.15;5.57;;;11.80;99.90;;;;;;5068787;28;20036;-65
2022/09/01 05:19:13;;;;;;;6.80;5.70;;;11.80;99.90;;;;;;5065834;28;20052;-65
2022/09/01 05:21:42;;;;;;;6.72;5.78;;;11.80;99.90;;;;;;5066063;28;20049;-66
2022/09/01 05:24:09;;;;;;;7.18;5.53;;;11.60;99.90;;;;;;5065416;28;20090;-66
2022/09/01 05:26:37;;;;;;;9.23;5.57;;;11.70;99.90;;;;;;5072103;28;20521;-66
2022/09/01 05:29:09;;;;;;;7.35;5.65;;;11.80;99.90;;;;;;5077501;28;20053;-66
2022/09/01 05:31:36;;;;;;;7.97;5.40;;;11.90;99.90;;;;;;5067008;28;20124;-65
2022/09/01 05:34:03;;;;;;;6.72;5.35;;;11.90;99.90;;;;;;5067147;28;20046;-64
2022/09/01 05:36:32;;;;;;;10.32;5.25;;;12.10;99.90;;;;;;5081104;28;20471;-66
2022/09/01 05:38:59;;;;;;;8.68;5.72;;;12.10;99.90;;;;;;5068129;28;20539;-65
2022/09/01 05:41:25;;;;;;;20.55;5.70;;;12.10;99.90;;;;;;5067579;28;20036;-66
2022/09/01 05:43:51;;;;;;;8.27;5.53;;;12.20;99.90;;;;;;5069172;28;20106;-66
2022/09/01 05:46:25;;;;;;;8.93;5.47;;;12.40;99.90;;;;;;5084745;28;20085;-65
2022/09/01 05:48:53;;;;;;;8.20;5.38;;;12.40;99.90;;;;;;5073524;28;20405;-66
2022/09/01 05:51:22;;;;;;;6.20;5.40;;;12.50;99.90;;;;;;5072063;28;20047;-65
2022/09/01 05:53:55;;;;;;;7.70;5.38;;;12.60;99.90;;;;;;5086421;28;20107;-67
2022/09/01 05:56:22;;;;;;;7.45;5.25;;;12.70;99.90;;;;;;5073588;28;20665;-67
2022/09/01 05:58:49;;;;;;;7.65;5.32;;;12.80;99.90;;;;;;5072887;28;20040;-68
2022/09/01 06:01:21;;;;;;;10.75;5.63;;;12.80;99.90;;;;;;5077082;28;20040;-66
2022/09/01 06:03:53;;;;;;;6.18;5.07;;;12.90;99.90;;;;;;5073703;28;20406;-69
2022/09/01 06:06:28;;;;;;;5.95;5.10;;;13.00;99.90;;;;;;5063754;28;20128;-69
2022/09/01 06:08:57;;;;;;;12.48;5.18;;;13.10;99.90;;;;;;5068611;28;20045;-69
2022/09/01 06:11:25;;;;;;;7.20;5.50;;;13.20;99.90;;;;;;5071189;28;20606;-68
2022/09/01 06:13:54;;;;;;;7.80;5.20;;;13.20;99.90;;;;;;5078784;28;20102;-69
2022/09/01 06:16:22;;;;;;;8.20;5.30;;;13.30;99.90;;;;;;5080300;28;20043;-69
2022/09/01 06:18:49;;;;;;;7.70;5.25;;;13.40;99.90;;;;;;5079999;28;20025;-69
2022/09/01 06:21:15;;;;;;;8.25;5.07;;;13.50;99.90;;;;;;5069780;28;20043;-69
2022/09/01 06:23:43;;;;;;;6.53;5.00;;;13.60;99.90;;;;;;5071170;28;20411;-69
2022/09/01 06:26:28;;;;;;;6.22;4.95;;;13.70;99.90;;;;;;5074618;28;20045;-70
2022/09/01 06:29:02;;;;;;;7.60;5.18;;;13.80;99.90;;;;;;5071977;28;20300;-69
2022/09/01 06:31:37;;;;;;;7.43;4.97;;;13.80;99.90;;;;;;5072984;28;20052;-69
2022/09/01 06:34:04;;;;;;;7.57;5.32;;;13.90;99.90;;;;;;5076004;28;20049;-70
2022/09/01 06:36:31;;;;;;;8.18;5.45;;;14.00;99.90;;;;;;5071469;28;20036;-70
2022/09/01 06:39:00;;;;;;;6.75;4.93;;;14.10;99.90;;;;;;5071762;28;20041;-70
2022/09/01 06:41:27;;;;;;;10.05;5.20;;;14.10;99.90;;;;;;5071678;28;20064;-70
2022/09/01 06:43:53;;;;;;;10.00;5.15;;;14.20;99.90;;;;;;5084602;28;20085;-68
2022/09/01 06:46:22;;;;;;;7.20;5.15;;;14.30;99.90;;;;;;5077820;28;20052;-71
2022/09/01 06:48:48;;;;;;;9.75;5.63;;;14.30;99.90;;;;;;5071490;28;20506;-69
2022/09/01 06:51:20;;;;;;;11.85;5.30;;;14.40;99.90;;;;;;5079039;28;20051;-67
2022/09/01 06:53:50;;;;;;;5.72;5.05;;;14.50;99.90;;;;;;5088304;28;20070;-66
2022/09/01 06:56:17;;;;;;;6.05;5.05;;;14.60;99.90;;;;;;5072646;28;20048;-67
2022/09/01 06:58:47;;;;;;;7.43;5.82;;;14.60;99.90;;;;;;5072314;28;20395;-66
2022/09/01 07:01:14;;;;;;;8.23;5.03;;;14.70;99.90;;;;;;5075632;28;20041;-66
2022/09/01 07:03:41;;;;;;;6.22;5.00;;;14.80;99.90;;;;;;5070718;28;20052;-68
2022/09/01 07:06:09;;;;;;;6.03;5.13;;;14.90;99.90;;;;;;5071315;28;20048;-67
2022/09/01 07:08:38;;;;;;;7.72;5.28;;;14.90;99.90;;;;;;5082531;28;20119;-67
2022/09/01 07:11:06;;;;;;;10.07;5.45;;;15.00;99.90;;;;;;5071802;28;20499;-67
2022/09/01 07:13:34;;;;;;;7.47;4.90;;;15.10;99.90;;;;;;5072510;28;20045;-68
2022/09/01 07:16:00;;;;;;;8.55;4.80;;;15.20;99.90;;;;;;5075948;28;20072;-68
2022/09/01 07:18:29;;;;;;;8.93;5.28;;;15.30;99.90;;;;;;5072226;28;20028;-67
2022/09/01 07:20:55;;;;;;;8.48;5.40;;;15.40;99.90;;;;;;5072353;28;20091;-67
2022/09/01 07:23:22;;;;;;;9.05;4.93;;;15.50;99.90;;;;;;5078344;28;20469;-67
2022/09/01 07:25:53;;;;;;;9.00;5.10;;;15.50;99.90;;;;;;5070072;28;20044;-67
2022/09/01 07:28:19;;;;;;;;;;;15.60;99.90;;;;;;5079845;28;20044;-66
2022/09/01 07:30:51;;;;;;;5.50;4.90;;;15.70;99.90;;;;;;5071995;28;19970;-67
2022/09/01 07:33:23;;;;;;;7.10;4.70;;;15.80;99.90;;;;;;5077549;28;20089;-66
2022/09/01 07:35:52;;;;;;;11.70;4.63;;;15.80;99.90;;;;;;5087230;28;20098;-67
2022/09/01 07:38:18;;;;;;;7.22;4.88;;;15.90;99.90;;;;;;5071680;28;20113;-67
2022/09/01 07:40:45;;;;;;;9.77;4.60;;;16.00;99.90;;;;;;5075231;28;20031;-66
2022/09/01 07:43:21;;;;;;;5.40;4.43;;;16.00;99.90;;;;;;5084290;28;20127;-66
2022/09/01 07:45:48;;;;;;;6.93;4.40;;;16.10;99.90;;;;;;5075331;28;20086;-66
2022/09/01 07:48:17;;;;;;;7.22;4.65;;;16.20;99.90;;;;;;5071458;28;20029;-66
2022/09/01 07:50:46;;;;;;;6.68;4.43;;;16.40;99.90;;;;;;5070257;28;20037;-66
2022/09/01 07:53:17;;;;;;;6.20;4.28;;;16.50;99.90;;;;;;5072001;28;20045;-67
2022/09/01 07:55:46;;;;;;;8.88;4.50;;;16.50;99.90;;;;;;5084803;28;20067;-66
2022/09/01 07:58:12;;;;;;;8.50;4.30;;;16.60;99.90;;;;;;5083174;28;20123;-66
2022/09/01 08:00:40;;;;;;;7.95;4.45;;;16.70;99.90;;;;;;5076284;28;20745;-66
2022/09/01 08:03:05;;;;;;;6.00;4.20;;;16.80;99.90;;;;;;5077329;28;20120;-66
2022/09/01 08:05:32;;;;;;;8.32;4.30;;;16.90;99.90;;;;;;5080807;28;20151;-66
2022/09/01 08:07:58;;;;;;;7.75;4.07;;;16.90;99.90;;;;;;5071611;28;20040;-66
2022/09/01 08:10:24;;;;;;;6.13;4.35;;;17.00;99.90;;;;;;5081244;28;20059;-67
2022/09/01 08:12:50;;;;;;;8.25;3.92;;;17.10;99.90;;;;;;5084319;28;20060;-65
2022/09/01 08:15:16;;;;;;;5.80;3.67;;;17.20;99.90;;;;;;5081150;28;20092;-67
2022/09/01 08:17:42;;;;;;;8.05;3.78;;;17.30;99.90;;;;;;5070479;28;20109;-66
2022/09/01 08:20:09;;;;;;;7.57;3.70;;;17.40;99.90;;;;;;5070943;28;20090;-66
2022/09/01 08:22:36;;;;;;;6.13;3.70;;;17.50;99.90;;;;;;5068960;28;20032;-66
2022/09/01 08:25:07;;;;;;;6.10;3.25;;;17.70;99.90;;;;;;5078588;28;20064;-67
2022/09/01 08:27:40;;;;;;;7.28;3.33;;;17.80;99.90;;;;;;5079965;28;20096;-66
2022/09/01 08:30:09;;;;;;;5.00;3.42;;;17.90;99.90;;;;;;5084778;28;20055;-66
2022/09/01 08:32:35;;;;;;;5.93;3.10;;;18.00;99.90;;;;;;5070186;28;20131;-66
2022/09/01 08:35:03;;;;;;;5.63;3.15;;;18.10;99.90;;;;;;5070676;28;20040;-66
2022/09/01 08:37:30;;;;;;;5.38;2.92;;;18.20;99.90;;;;;;5070909;28;20040;-65
2022/09/01 08:39:55;;;;;;;4.82;2.70;;;18.30;99.90;;;;;;5073760;28;20056;-66
2022/09/01 08:43:00;;;;;;;7.25;2.90;;;18.40;99.90;;;;;;5068642;28;20512;-66
2022/09/01 08:45:46;;;;;;;3.90;2.58;;;18.40;99.90;;;;;;5008727;28;20638;-66
2022/09/01 08:48:19;;;;;;;4.60;2.50;;;18.50;99.90;;;;;;5063780;28;20102;-66
2022/09/01 08:50:53;;;;;;;4.25;2.40;;;18.60;99.90;;;;;;5070501;28;20115;-67
2022/09/01 08:53:32;;;;;;;5.18;2.47;;;18.70;99.90;;;;;;5085802;28;20543;-67
2022/09/01 08:55:58;;;;;;;6.22;2.50;;;18.90;99.90;;;;;;5091217;28;20024;-67
2022/09/01 08:58:27;;;;;;;6.40;2.20;;;18.90;99.90;;;;;;5068986;28;20060;-67
2022/09/01 09:01:00;;;;;;;6.70;2.28;;;19.10;99.90;;;;;;5069961;28;20510;-67
2022/09/01 09:03:45;;;;;;;3.35;2.13;;;19.20;99.90;;;;;;5069564;28;20032;-67
2022/09/01 09:06:16;;;;;;;3.65;2.20;;;19.20;99.90;;;;;;5079197;28;20067;-67
2022/09/01 09:08:48;;;;;;;;;;;19.40;99.90;;;;;;5070770;28;20036;-66
2022/09/01 09:11:32;;;;;;;4.78;2.35;;;19.60;97.90;;;;;;5070122;28;19921;-67
2022/09/01 09:14:10;;;;;;;14.43;2.22;;;19.70;99.90;;;;;;5074236;28;20477;-67
2022/09/01 09:16:39;;;;;;;5.65;2.10;;;19.90;99.30;;;;;;5079703;28;20072;-67
2022/09/01 09:19:23;;;;;;;4.30;2.10;;;19.90;98.70;;;;;;5070357;28;20035;-66
2022/09/01 09:21:51;;;;;;;4.07;2.13;;;19.90;96.40;;;;;;5070671;28;20093;-66
2022/09/01 09:24:54;;;;;;;9.20;2.33;;;20.00;98.30;;;;;;5077689;28;20047;-66
2022/09/01 09:27:23;;;;;;;3.33;2.17;;;20.20;96.90;;;;;;5077554;28;20048;-67
2022/09/01 09:29:54;;;;;;;5.75;2.08;;;20.20;97.30;;;;;;5090623;28;20107;-67
2022/09/01 09:32:21;;;;;;;2.78;1.88;;;20.30;97.80;;;;;;5067486;28;20132;-65
2022/09/01 09:34:49;;;;;;;4.32;1.85;;;20.30;96.50;;;;;;5069744;28;20036;-67
2022/09/01 09:37:30;;;;;;;2.70;1.80;;;20.30;95.80;;;;;;5068853;28;20115;-67
2022/09/01 09:40:15;;;;;;;2.67;1.90;;;20.40;94.40;;;;;;5069774;28;20114;-67
2022/09/01 09:42:53;;;;;;;7.65;2.40;;;20.50;94.90;;;;;;5069734;28;20033;-66
2022/09/01 09:45:23;;;;;;;4.22;1.98;;;20.60;93.60;;;;;;5070016;28;20550;-67
2022/09/01 09:47:49;;;;;;;3.85;2.00;;;20.50;94.70;;;;;;5075426;28;20039;-66
2022/09/01 09:50:21;;;;;;;4.43;1.95;;;20.70;96.20;;;;;;5071252;28;20040;-67
2022/09/01 09:52:48;;;;;;;3.15;1.90;;;20.80;96.20;;;;;;5087614;28;20051;-65
2022/09/01 09:55:23;;;;;;;3.60;2.17;;;20.80;93.70;;;;;;5068857;28;20041;-67
2022/09/01 09:57:51;;;;;;;4.53;1.88;;;20.80;93.80;;;;;;5067773;28;20029;-67
2022/09/01 10:00:35;;;;;;;5.50;2.00;;;20.90;95.90;;;;;;5068571;28;20047;-66
2022/09/01 10:03:03;;;;;;;7.00;2.00;;;21.10;93.50;;;;;;5068058;28;20028;-64
2022/09/01 10:05:43;;;;;;;3.35;1.90;;;21.30;94.30;;;;;;5076998;28;20661;-67
2022/09/01 10:08:28;;;;;;;4.28;1.90;;;21.30;92.90;;;;;;5069391;28;20036;-65
2022/09/01 10:10:54;;;;;;;6.78;1.85;;;21.30;91.40;;;;;;5071047;28;20055;-66
2022/09/01 10:13:22;;;;;;;3.65;1.77;;;21.30;94.00;;;;;;5088770;28;20040;-66
2022/09/01 10:15:51;;;;;;;5.57;1.85;;;21.40;91.70;;;;;;5069953;28;20029;-66
2022/09/01 10:18:20;;;;;;;3.75;1.60;;;21.50;92.50;;;;;;5069954;28;20491;-67
2022/09/01 10:21:06;;;;;;;3.67;2.10;;;21.50;92.90;;;;;;5079328;28;20605;-67
2022/09/01 10:23:33;;;;;;;5.68;1.90;;;21.70;89.70;;;;;;5063440;28;20051;-67
2022/09/01 10:26:12;;;;;;;4.93;1.80;;;21.80;92.80;;;;;;5069899;28;20048;-68
2022/09/01 10:28:53;;;;;;;2.83;1.90;;;22.00;91.30;;;;;;5068926;28;20048;-68
2022/09/01 10:31:20;;;;;;;4.22;1.60;;;22.10;89.30;;;;;;5068704;28;20486;-67
2022/09/01 10:33:46;;;;;;;4.53;2.03;;;22.00;91.20;;;;;;5071419;28;20046;-67
2022/09/01 10:36:14;;;;;;;7.38;2.03;;;22.20;90.90;;;;;;5071452;28;20041;-67
2022/09/01 10:38:42;;;;;;;4.13;1.45;;;22.50;89.70;;;;;;5072728;28;20036;-67
2022/09/01 10:41:08;;;;;;;5.55;1.48;;;22.50;88.70;;;;;;5072776;28;20041;-67
2022/09/01 10:43:46;;;;;;;2.22;1.58;;;22.70;86.50;;;;;;5061075;28;20086;-67
2022/09/01 10:46:21;;;;;;;3.72;1.58;;;22.80;86.70;;;;;;5071707;28;20043;-67
2022/09/01 10:48:51;;;;;;;2.55;1.58;;;22.80;82.10;;;;;;5076521;28;20044;-67
2022/09/01 10:51:17;;;;;;;2.00;1.40;;;22.70;82.80;;;;;;5066625;28;20134;-67
2022/09/01 10:53:54;;;;;;;3.83;1.50;;;22.60;82.30;;;;;;5070217;28;20398;-65
2022/09/01 10:56:37;;;;;;;4.50;1.30;;;22.90;82.50;;;;;;5081044;28;20048;-67
2022/09/01 10:59:23;;;;;;;4.63;1.83;;;23.20;80.70;;;;;;5076097;28;20043;-68
2022/09/01 11:01:48;;;;;;;3.15;1.42;;;23.40;81.00;;;;;;5077281;28;20028;-68
2022/09/01 11:04:46;;;;;;;6.18;1.88;;;23.50;82.10;;;;;;5085974;28;20044;-66
2022/09/01 11:07:17;;;;;;;2.25;1.55;;;23.00;77.40;;;;;;5088732;28;20553;-66
2022/09/01 11:09:47;;;;;;;5.13;1.70;;;22.80;81.00;;;;;;5085108;28;20035;-64
2022/09/01 11:12:45;;;;;;;3.63;1.60;;;23.00;79.70;;;;;;5077746;28;20070;-67
2022/09/01 11:15:14;;;;;;;6.15;1.70;;;23.20;77.90;;;;;;5076938;28;20044;-68
2022/09/01 11:17:51;;;;;;;5.88;2.38;;;23.20;80.30;;;;;;5081953;28;20170;-68
2022/09/01 11:20:27;;;;;;;6.03;1.70;;;23.10;79.80;;;;;;5079546;28;20064;-68
2022/09/01 11:22:55;;;;;;;4.32;1.70;;;22.90;79.00;;;;;;5084814;28;20078;-67
2022/09/01 11:25:38;;;;;;;9.15;1.58;;;23.00;79.80;;;;;;5085963;28;20071;-66
2022/09/01 11:28:22;;;;;;;3.22;1.65;;;23.20;75.60;;;;;;5086621;28;20129;-66
2022/09/01 11:30:59;;;;;;;2.08;1.45;;;23.20;72.10;;;;;;5076548;28;20055;-67
2022/09/01 11:33:40;;;;;;;3.65;1.50;;;23.20;72.80;;;;;;5084382;28;20040;-68
2022/09/01 11:36:22;;;;;;;2.38;1.60;;;23.30;74.90;;;;;;5074088;28;20036;-68
2022/09/01 11:39:17;;;;;;;5.18;1.58;;;23.70;74.60;;;;;;5081868;28;20491;-67
2022/09/01 11:41:51;;;;;;;3.03;1.38;;;23.70;69.40;;;;;;5075193;28;20040;-67
2022/09/01 11:44:26;;;;;;;3.72;1.40;;;23.40;70.70;;;;;;5081445;28;20052;-67
2022/09/01 11:47:26;;;;;;;2.22;1.63;;;23.20;72.10;;;;;;5086528;28;20486;-67
2022/09/01 11:49:56;;;;;;;2.65;1.70;;;23.30;72.40;;;;;;5075446;28;20502;-67
2022/09/01 11:52:26;;;;;;;2.75;1.52;;;23.10;73.50;;;;;;5077840;28;20447;-68
2022/09/01 11:54:53;;;;;;;5.35;1.70;;;22.80;72.20;;;;;;5087194;28;20547;-68
2022/09/01 11:57:30;;;;;;;2.22;1.67;;;22.70;72.70;;;;;;5088409;28;20036;-67
2022/09/01 11:59:59;;;;;;;7.97;2.03;;;22.40;69.00;;;;;;5081092;28;20047;-68
2022/09/01 12:02:32;;;;;;;8.75;1.88;;;22.30;72.10;;;;;;5077381;28;20567;-66
2022/09/01 12:04:59;;;;;;;4.28;1.85;;;22.40;72.60;;;;;;5082934;28;20048;-67
2022/09/01 12:07:28;;;;;;;3.22;1.83;;;22.50;73.90;;;;;;5085456;28;20070;-68
2022/09/01 12:09:54;;;;;;;2.30;1.70;;;22.80;75.20;;;;;;5081031;28;20043;-67
2022/09/01 12:12:26;;;;;;;7.40;2.28;;;22.80;75.10;;;;;;5089043;28;20047;-67
2022/09/01 12:15:00;;;;;;;6.90;1.92;;;22.70;72.50;;;;;;5089862;28;20171;-67
2022/09/01 12:17:26;;;;;;;6.28;1.90;;;22.70;74.00;;;;;;5078030;28;20044;-67
2022/09/01 12:19:53;;;;;;;4.20;1.80;;;22.80;76.60;;;;;;5082396;28;20050;-68
2022/09/01 12:22:21;;;;;;;5.20;1.75;;;23.30;76.40;;;;;;5084161;28;20028;-68
2022/09/01 12:24:53;;;;;;;3.47;1.52;;;23.80;75.30;;;;;;5081084;28;20495;-68
2022/09/01 12:27:22;;;;;;;4.90;1.38;;;24.00;69.80;;;;;;5085245;28;20043;-67
2022/09/01 12:29:48;;;;;;;3.47;1.48;;;23.60;69.10;;;;;;5086254;28;20040;-67
2022/09/01 12:32:15;;;;;;;3.22;1.50;;;23.30;71.10;;;;;;5082179;28;20515;-68
2022/09/01 12:34:59;;;;;;;4.85;1.48;;;23.10;70.60;;;;;;5083393;28;20463;-67
2022/09/01 12:37:26;;;;;;;5.15;1.58;;;22.80;66.70;;;;;;5088515;28;20029;-68
2022/09/01 12:39:56;;;;;;;4.13;1.23;;;23.30;70.50;;;;;;5081906;28;20078;-67
2022/09/01 12:42:28;;;;;;;2.38;1.30;;;23.60;65.90;;;;;;5078775;28;20032;-68
2022/09/01 12:45:06;;;;;;;3.97;1.50;;;24.00;64.90;;;;;;5081509;28;20051;-67
2022/09/01 12:47:32;;;;;;;7.63;1.50;;;24.30;62.60;;;;;;5087154;28;20036;-67
2022/09/01 12:50:14;;;;;;;8.35;1.98;;;24.80;67.30;;;;;;5085980;28;20410;-66
2022/09/01 12:52:49;;;;;;;13.98;2.00;;;25.00;64.10;;;;;;5079439;28;20032;-68
2022/09/01 12:55:18;;;;;;;3.78;1.50;;;24.70;62.50;;;;;;5085870;28;20044;-68
2022/09/01 12:58:10;;;;;;;2.80;1.60;;;24.30;64.00;;;;;;5074553;28;20043;-68
2022/09/01 13:00:54;;;;;;;2.35;1.23;;;24.20;63.40;;;;;;5085469;28;20114;-67
2022/09/01 13:03:21;;;;;;;3.28;1.40;;;24.40;61.80;;;;;;5077009;28;20529;-68
2022/09/01 13:05:57;;;;;;;9.13;1.75;;;24.60;63.50;;;;;;5082069;28;20070;-68
2022/09/01 13:08:27;;;;;;;3.63;1.90;;;24.50;62.00;;;;;;5086878;28;20523;-68
2022/09/01 13:10:56;;;;;;;2.13;1.92;;;24.70;62.80;;;;;;5082354;28;20043;-68